AirNav   Bose ProFlight Aviation Headset
 
 479 users online  

KEGT Wellington Municipal Airport
Wellington, Kansas, USA

GOING TO WELLINGTON?


FAA INFORMATION EFFECTIVE 08 NOVEMBER 2018

Location

FAA Identifier: EGT
Lat/Long: 37-19-29.9846N / 097-23-18.0815W
37-19.499743N / 097-23.301358W
37.3249957 / -97.3883560
(estimated)
Elevation: 1277 ft. / 389.2 m (surveyed)
Variation: 03E (2020)
From city: 3 miles N of WELLINGTON, KS
Time zone: UTC -6 (UTC -5 during Daylight Saving Time)
Zip code: 67152

Airport Operations

Airport use: Open to the public
Activation date: 11/1942
Control tower: no
ARTCC: KANSAS CITY CENTER
FSS: WICHITA FLIGHT SERVICE STATION
NOTAMs facility: ICT (NOTAM-D service available)
Attendance: 0800-1700
Wind indicator: lighted
Segmented circle: no
Lights: ACTVT REIL RWYS 18/36; HIRL RWY 18 &36 CTAF. PAPI RWYS 18 & 36 ARE ON 24 HRS.
Beacon: white-green (lighted land airport)
Operates sunset to sunrise.

Airport Communications

CTAF/UNICOM: 122.8
WX AWOS-3: 118.875 (620-326-2470)
WICHITA APPROACH: 134.85
WICHITA DEPARTURE: 134.85
WX ASOS at WLD (19 nm SE): 118.025 (620-221-9121)
WX ASOS at ICT (20 nm N): PHONE 316-945-8022

Nearby radio navigation aids

VOR radial/distance  VOR name  Freq  Var
ICTr153/26.9WICHITA VORTAC113.8007E
PERr337/36.4PIONEER VORTAC113.2006E
ANYr068/38.7ANTHONY VORTAC112.9007E

Airport Services

Fuel available: 100LL JET-A
FOR JET A AFT HRS CALL 620-440-2213.
SELF SVC FUEL 100LL AVBL 24 HR WITH CREDIT CARD.
Parking: tiedowns
Airframe service: MAJOR
Powerplant service: MAJOR
Bottled oxygen: NONE
Bulk oxygen: NONE

Runway Information

Runway 18/36

Dimensions: 5201 x 100 ft. / 1585 x 30 m
Surface: concrete, in good condition
Weight bearing capacity: 
Single wheel: 49.0
Double wheel: 60.0
Runway edge lights: high intensity
RUNWAY 18  RUNWAY 36
Latitude: 37-19.928178N37-19.071307N
Longitude: 097-23.306732W097-23.295985W
Elevation: 1276.9 ft.1271.0 ft.
Gradient: 0.2%0.2%
Traffic pattern: leftleft
Runway heading: 176 magnetic, 179 true356 magnetic, 359 true
Markings: nonprecision, in good conditionnonprecision, in good condition
Visual slope indicator: 2-light PAPI on left (3.00 degrees glide path)2-light PAPI on left (3.00 degrees glide path)
Runway end identifier lights: yesyes
Touchdown point: yes, no lightsyes, no lights

Airport Ownership and Management from official FAA records

Ownership: Publicly-owned
Owner: CITY OF WELLINGTON
441 NORTH WEST ROAD
WELLINGTON, KS 67152
Phone (620) 440-2213
Manager: MATTHEW D. WIEBE
441 NORTH WEST ROAD
WELLINGTON, KS 67152
Phone (620) 440-2213
TERMINAL BLDG. PHONE 620-440-2213 FAX 620-326-6163

Airport Operational Statistics

Aircraft based on the field: 29
Single engine airplanes: 25
Multi engine airplanes: 4
    
Aircraft operations: avg 50/day *
54% transient general aviation
44% local general aviation
1% commercial
<1% military
* for 12-month period ending 27 August 2018

Additional Remarks

FOR SPECIAL REQS & AFT HRS CALL 620-440-2213.
KEY CODE FOR PILOT LOUNGE 1228

Instrument Procedures

NOTE: All procedures below are presented as PDF files. If you need a reader for these files, you should download the free Adobe Reader.

NOT FOR NAVIGATION. Please procure official charts for flight.
FAA instrument procedures published for use from 8 November 2018 at 0901Z to 6 December 2018 at 0900Z.

 
IAPs - Instrument Approach Procedures
RNAV (GPS) RWY 18   download (244KB)
RNAV (GPS) RWY 36   download (241KB)
VOR RWY 18   download (200KB)
NOTE: Special Take-Off Minimums/Departure Procedures apply   download (259KB)

Other nearby airports with instrument procedures:

KIAB - Mc Connell Air Force Base (19 nm N)
KWLD - Strother Field Airport (19 nm SE)
KICT - Wichita Dwight D Eisenhower National Airport (20 nm N)
KCEA - Cessna Aircraft Field Airport (20 nm N)
KBEC - Beech Factory Airport (24 nm N)
 
Loc | Ops | Rwys | IFR | FBO | Links
Com | Nav | Svcs | Stats | Notes

Kansas City Aviation Department
 
Area around KEGT (Wellington Municipal Airport)
 
Road maps at: MapQuest Bing Google
 
Aerial photo
WARNING: Photo may not be current or correct
Aerial photo of KEGT (Wellington Municipal Airport)
Photo taken 04-Sep-2015
looking east.

Do you have a better or more recent aerial photo of Wellington Municipal Airport that you would like to share? If so, please send us your photo.

 
Sectional chart

 
Airport distance calculator
Flying to Wellington Municipal Airport? Find the distance to fly.

From to KEGT

Sunrise and sunset
Times for 19-Nov-2018
 Local
(UTC-6)
 Zulu
(UTC)
Morning civil twilight06:4612:46
Sunrise07:1413:14
Sunset17:1623:16
Evening civil twilight17:4423:44

Current date and time
Zulu (UTC)  19-Nov-2018 06:14:19
Local (UTC-6)  19-Nov-2018 00:14:19
 
METAR
KIAB 
18nm N 
190556Z AUTO 20003KT 10SM CLR M03/M05 A3016 RMK AO2 SLP231 T10351054 10011 21038 400171045 57006
KWLD 
19nm SE 
190554Z AUTO 21004KT 10SM CLR M03/M04 A3019 RMK AO2 SLP237 T10331044 10006 21033 400061033 56006
KICT 
20nm N 
190553Z 20006KT 10SM CLR M04/M05 A3016 RMK AO2 SLP229 T10391050 10011 21039 400221044 56007 $
KBEC 
24nm N 
190555Z AUTO 21005KT 10SM CLR M03/M05 A3016 RMK AO2 T10311050 10006 21036 400121048
K3AU 
26nm NE 
190555Z AUTO 21003KT 10SM CLR M02/M03 A3017 RMK AO2
KAAO 
27nm N 
190554Z AUTO 20007KT 10SM CLR M04/M05 A3016 RMK AO2 SLP230 T10391050 10006 21044 400221050 56007
K1K1 
30nm NE 
190555Z AUTO 20004KT 10SM CLR M03/M05 A3016 RMK AO2 T10331046 10002 21035 400061053
8K2 
31nm W 
SuperAWOS
190552Z AUTO 10SM M03/M05 A3018
KBKN 
35nm S 
190555Z AUTO 22004KT 10SM M02/M02 A3023 RMK AO2
TAF
KIAB 
18nm N 
190200Z 1902/2008 22006KT 9999 BKN020 QNH3017INS BECMG 1905/1906 25006KT 9999 FEW020 QNH3014INS BECMG 1920/1921 320010G15KT 9999 SKC QNH3016INS BECMG 2002/2003 35006KT 9999 SCT020 QNH3028INS TX08/1920Z TNM03/1911Z
KICT 
20nm N 
190525Z 1906/2006 VRB03KT P6SM SKC FM191500 28006KT P6SM SCT250 FM191900 31013KT P6SM SCT250 FM200100 35007KT P6SM SKC
NOTAMs
Click for the latest NOTAMs
NOTAMs are issued by the DoD/FAA and will open in a separate window not controlled by AirNav.

 

 
 

FBO, Fuel Providers, and Aircraft Ground Support

  
 Business Name 
 
 Contact 
 
 Services / Description 
 
Fuel Prices
 
Comments
  
 Wellington Municipal Airport
620-440-2213
[web site]
[email]
Airport management, Aviation fuel, Aircraft parking (ramp or tiedown), Hangars, Passenger terminal and lounge, Flight training, Aircraft modifications, Pilot supplies, ...
 
Courtesy car   Enterprise Rent-A-Car  
 
More info about Wellington Municipal Airport
Avfuel
100LL Jet A
AS $4.55 --- 
FS --- $3.70 
 Updated 09-Nov-2018
 
   2 read write
AS=Assisted/Self Service
FS=Full service
Update Fuel Prices
 

Aviation Businesses, Services, and Facilities

  
 Business Name 
 
 Contact 
 
 Services / Description 
 
Distance
 
Comments
  
Air Plains Services 620-326-8904
toll-free 1-800-752-8481
[web site]
[email]
Aircraft maintenance, Aircraft modifications, Aircraft painting, Aircraft interiors, Aircraft parts

More info about Air Plains Services
on airport  
   write
 

Would you like to see your business listed on this page?

 If your business provides an interesting product or service to pilots, flight crews, aircraft, or users of the Wellington Municipal Airport, you should consider listing it here.  To start the listing process, click on the button below
 
Add a business
 

Other Pages about Wellington Municipal Airport

cityofwellington.net/municipal-airport
 
Update a link
 
Copyright © AirNav, LLC. All rights reserved. Privacy Policy  Contact